Time;durP1;ratioP1;P1;durP2;ratioP2;P2;SDS_P1;SDS_P2;PMS_P1;PMS_P2;Temp;Humidity;BMP_temperature;BMP_pressure;BME280_temperature;BME280_humidity;BME280_pressure;Samples;Min_cycle;Max_cycle;Signal;HPM_P1;HPM_P2
2022/04/02 00:02:23;;;;;;;257.73;247.60;;;2.20;99.90;;;;;;4391413;32;20168;-58
2022/04/02 00:04:51;;;;;;;253.57;243.60;;;2.20;99.90;;;;;;4391886;32;20560;-55
2022/04/02 00:07:18;;;;;;;256.63;246.53;;;2.10;99.90;;;;;;4394456;32;20227;-57
2022/04/02 00:09:45;;;;;;;259.67;249.47;;;2.10;99.90;;;;;;4403223;32;20164;-59
2022/04/02 00:12:12;;;;;;;260.43;250.37;;;2.10;99.90;;;;;;4404458;32;20235;-57
2022/04/02 00:14:39;;;;;;;266.27;255.80;;;2.00;99.90;;;;;;4403153;32;20162;-56
2022/04/02 00:17:07;;;;;;;258.53;248.50;;;2.00;99.90;;;;;;4404483;32;20224;-55
2022/04/02 00:19:35;;;;;;;250.10;240.27;;;1.90;99.90;;;;;;4400155;32;22091;-56
2022/04/02 00:22:03;;;;;;;253.73;243.90;;;1.90;99.90;;;;;;4397430;32;20145;-55
2022/04/02 00:24:30;;;;;;;256.73;246.67;;;1.90;99.90;;;;;;4391115;32;20223;-59
2022/04/02 00:26:57;;;;;;;262.03;251.77;;;1.90;99.90;;;;;;4390530;32;20227;-57
2022/04/02 00:29:24;;;;;;;246.07;236.43;;;1.90;99.90;;;;;;4391748;32;20200;-57
2022/04/02 00:31:51;;;;;;;247.87;238.17;;;1.90;99.90;;;;;;4399358;32;20179;-57
2022/04/02 00:34:17;;;;;;;259.20;249.10;;;1.80;99.90;;;;;;4396164;32;20228;-58
2022/04/02 00:36:45;;;;;;;268.63;258.03;;;1.80;99.90;;;;;;4405305;32;20703;-60
2022/04/02 00:39:14;;;;;;;253.57;243.40;;;1.90;99.90;;;;;;4404235;32;20136;-59
2022/04/02 00:41:42;;;;;;;256.60;246.47;;;1.90;99.90;;;;;;4404295;32;20171;-57
2022/04/02 00:44:11;;;;;;;251.67;241.87;;;1.90;99.90;;;;;;4397954;32;20227;-59
2022/04/02 00:46:40;;;;;;;256.90;246.80;;;1.80;99.90;;;;;;4400641;32;20152;-57
2022/04/02 00:49:07;;;;;;;253.97;243.87;;;1.90;99.90;;;;;;4403011;32;20227;-57
2022/04/02 00:51:34;;;;;;;264.27;253.97;;;1.80;99.90;;;;;;4399452;32;20599;-58
2022/04/02 00:54:02;;;;;;;267.80;257.40;;;1.70;99.90;;;;;;4390135;32;20215;-57
2022/04/02 00:56:31;;;;;;;256.10;246.00;;;1.80;99.90;;;;;;4390659;32;20170;-56
2022/04/02 00:58:58;;;;;;;255.07;245.13;;;1.80;99.90;;;;;;4389529;32;20157;-59
2022/04/02 01:01:25;;;;;;;266.20;255.90;;;1.80;99.90;;;;;;4396455;32;20234;-56
2022/04/02 01:03:52;;;;;;;254.10;244.20;;;1.70;99.90;;;;;;4404872;32;20159;-56
2022/04/02 01:06:18;;;;;;;277.33;266.37;;;1.70;99.90;;;;;;4402971;32;20211;-58
2022/04/02 01:08:47;;;;;;;263.60;253.23;;;1.80;99.90;;;;;;4404246;32;20233;-56
2022/04/02 01:11:14;;;;;;;266.57;256.10;;;1.70;99.90;;;;;;4398723;32;20141;-59
2022/04/02 01:13:42;;;;;;;275.43;264.60;;;1.70;99.90;;;;;;4390753;32;20160;-59
2022/04/02 01:16:09;;;;;;;253.30;243.50;;;1.70;99.90;;;;;;4404289;32;20475;-58
2022/04/02 01:18:36;;;;;;;259.50;249.17;;;1.70;99.90;;;;;;4391375;32;20148;-59
2022/04/02 01:21:03;;;;;;;249.97;240.03;;;1.70;99.90;;;;;;4391289;32;20195;-58
2022/04/02 01:23:32;;;;;;;275.90;265.00;;;1.70;99.90;;;;;;4404236;32;20535;-58
2022/04/02 01:26:01;;;;;;;271.67;260.83;;;1.60;99.90;;;;;;4392399;32;20231;-59
2022/04/02 01:28:33;;;;;;;256.33;246.20;;;1.60;99.90;;;;;;4390143;32;20231;-56
2022/04/02 01:31:05;;;;;;;258.20;248.07;;;1.60;99.90;;;;;;4390704;32;20194;-56
2022/04/02 01:33:32;;;;;;;256.93;246.90;;;1.60;99.90;;;;;;4409099;32;20227;-56
2022/04/02 01:36:00;;;;;;;272.47;261.73;;;1.60;99.90;;;;;;4406590;32;20235;-61
2022/04/02 01:38:29;;;;;;;250.97;241.03;;;1.60;99.90;;;;;;4402015;32;20161;-58
2022/04/02 01:40:58;;;;;;;256.97;246.87;;;1.60;99.90;;;;;;4394123;32;20206;-56
2022/04/02 01:43:25;;;;;;;239.13;229.83;;;1.60;99.90;;;;;;4402316;32;20170;-57
2022/04/02 01:45:55;;;;;;;285.73;274.60;;;1.60;99.90;;;;;;4406210;32;20148;-55
2022/04/02 01:48:22;;;;;;;260.43;250.23;;;1.60;99.90;;;;;;4407292;32;20159;-55
2022/04/02 01:50:49;;;;;;;262.33;251.90;;;1.60;99.90;;;;;;4403432;32;20160;-57
2022/04/02 01:53:16;;;;;;;260.37;250.10;;;1.60;99.90;;;;;;4396611;32;20482;-55
2022/04/02 01:55:43;;;;;;;279.20;268.17;;;1.60;99.90;;;;;;4401387;32;20570;-56
2022/04/02 01:58:11;;;;;;;263.13;252.87;;;1.50;99.90;;;;;;4407584;32;20254;-55
2022/04/02 02:00:39;;;;;;;269.80;259.07;;;1.50;99.90;;;;;;4406259;32;20227;-56
2022/04/02 02:03:07;;;;;;;269.10;258.57;;;1.50;99.90;;;;;;4400032;32;20516;-57
2022/04/02 02:05:34;;;;;;;260.40;250.27;;;1.40;99.90;;;;;;4403600;32;20143;-56
2022/04/02 02:08:01;;;;;;;273.80;262.87;;;1.40;99.90;;;;;;4407862;32;20235;-55
2022/04/02 02:10:28;;;;;;;269.77;259.10;;;1.40;99.90;;;;;;4406157;32;20190;-56
2022/04/02 02:12:55;;;;;;;259.67;249.33;;;1.40;99.90;;;;;;4403259;32;20586;-56
2022/04/02 02:15:23;;;;;;;266.63;256.17;;;1.40;99.90;;;;;;4393307;32;20286;-57
2022/04/02 02:17:52;;;;;;;258.87;248.77;;;1.50;99.90;;;;;;4392150;32;20516;-57
2022/04/02 02:20:19;;;;;;;259.50;249.20;;;1.40;99.90;;;;;;4399601;32;20503;-57
2022/04/02 02:22:50;;;;;;;261.70;251.23;;;1.40;99.90;;;;;;4396104;32;20546;-58
2022/04/02 02:25:18;;;;;;;271.10;260.40;;;1.30;99.90;;;;;;4401349;32;20580;-57
2022/04/02 02:27:47;;;;;;;259.77;249.60;;;1.40;99.90;;;;;;4406536;32;20140;-54
2022/04/02 02:30:16;;;;;;;272.43;261.80;;;1.40;99.90;;;;;;4407280;32;20223;-57
2022/04/02 02:32:47;;;;;;;270.47;259.83;;;1.40;99.90;;;;;;4404177;32;20727;-55
2022/04/02 02:38:08;;;;;;;252.53;242.67;;;1.30;99.90;;;;;;4397903;32;20201;-57
2022/04/02 02:40:35;;;;;;;264.10;253.77;;;1.30;99.90;;;;;;4407481;32;20214;-59
2022/04/02 02:43:03;;;;;;;268.87;258.33;;;1.30;99.90;;;;;;4405705;32;20209;-57
2022/04/02 02:45:31;;;;;;;254.90;244.80;;;1.20;99.90;;;;;;4398829;32;20228;-58
2022/04/02 02:48:00;;;;;;;275.80;265.00;;;1.20;99.90;;;;;;4402804;32;20148;-55
2022/04/02 02:50:27;;;;;;;269.93;259.30;;;1.20;99.90;;;;;;4404906;32;20231;-57
2022/04/02 02:52:54;;;;;;;260.37;250.20;;;1.20;99.90;;;;;;4403868;32;20585;-58
2022/04/02 02:55:21;;;;;;;274.43;263.70;;;1.20;99.90;;;;;;4405548;32;20530;-58
2022/04/02 02:57:48;;;;;;;252.93;243.03;;;1.20;99.90;;;;;;4312012;32;1713319;-57
2022/04/02 03:00:19;;;;;;;262.27;251.93;;;1.20;99.90;;;;;;4375348;32;20161;-58
2022/04/02 03:02:46;;;;;;;251.87;242.00;;;1.10;99.90;;;;;;4361179;32;20186;-57
2022/04/02 03:05:16;;;;;;;267.37;257.03;;;1.10;99.90;;;;;;4372633;32;20164;-57
2022/04/02 03:07:48;;;;;;;262.67;252.23;;;1.10;99.90;;;;;;4364435;32;20216;-57
2022/04/02 03:10:15;;;;;;;269.23;258.67;;;1.10;99.90;;;;;;4364564;32;20184;-58
2022/04/02 03:12:42;;;;;;;265.77;255.23;;;1.10;99.90;;;;;;4376139;32;20152;-56
2022/04/02 03:15:10;;;;;;;261.97;251.83;;;1.10;99.90;;;;;;4365982;32;20555;-56
2022/04/02 03:17:37;;;;;;;269.43;258.90;;;1.10;99.90;;;;;;4376871;32;20196;-57
2022/04/02 03:20:05;;;;;;;278.53;267.57;;;1.00;99.90;;;;;;4372038;32;20194;-57
2022/04/02 03:22:35;;;;;;;263.27;253.00;;;1.00;99.90;;;;;;4375390;32;20171;-57
2022/04/02 03:25:04;;;;;;;264.47;254.10;;;1.10;99.90;;;;;;4373990;32;20217;-53
2022/04/02 03:27:31;;;;;;;274.63;263.87;;;1.00;99.90;;;;;;4365734;32;20180;-57
2022/04/02 03:29:58;;;;;;;254.83;244.90;;;1.00;99.90;;;;;;4364925;32;20172;-56
2022/04/02 03:32:24;;;;;;;278.20;267.27;;;1.00;99.90;;;;;;4367686;32;20206;-57
2022/04/02 03:34:51;;;;;;;263.40;253.10;;;1.00;99.90;;;;;;4365082;32;20223;-54
2022/04/02 03:37:18;;;;;;;262.47;252.07;;;1.00;99.90;;;;;;4373959;32;20207;-56
2022/04/02 03:39:46;;;;;;;280.53;269.57;;;1.00;99.90;;;;;;4373599;32;20624;-57
2022/04/02 03:42:16;;;;;;;270.70;260.03;;;1.00;99.90;;;;;;4368634;32;20176;-56
2022/04/02 03:44:43;;;;;;;260.50;249.90;;;0.90;99.90;;;;;;4369423;32;20243;-58
2022/04/02 03:47:10;;;;;;;259.10;248.97;;;0.90;99.90;;;;;;4364391;32;20652;-58
2022/04/02 03:49:37;;;;;;;277.60;266.70;;;0.90;99.90;;;;;;4369681;32;20244;-57
2022/04/02 03:52:05;;;;;;;268.47;257.87;;;0.90;99.90;;;;;;4360484;32;20191;-56
2022/04/02 03:54:32;;;;;;;263.87;253.47;;;0.80;99.90;;;;;;4360031;32;20189;-57
2022/04/02 03:57:00;;;;;;;256.37;246.27;;;0.80;99.90;;;;;;4371772;32;20532;-57
2022/04/02 03:59:27;;;;;;;270.77;260.23;;;0.80;99.90;;;;;;4369452;32;20160;-56
2022/04/02 04:01:54;;;;;;;268.70;258.13;;;0.80;99.90;;;;;;4383737;32;20230;-57
2022/04/02 04:04:20;;;;;;;285.53;274.23;;;0.80;99.90;;;;;;4363083;32;20169;-55
2022/04/02 04:06:48;;;;;;;266.67;256.13;;;0.80;99.90;;;;;;4372619;32;20180;-58
2022/04/02 04:09:15;;;;;;;265.97;255.53;;;0.80;99.90;;;;;;4372907;32;20575;-55
2022/04/02 04:11:42;;;;;;;265.57;254.93;;;0.80;99.90;;;;;;4362086;32;20490;-54
2022/04/02 04:14:10;;;;;;;270.90;260.23;;;0.80;99.90;;;;;;4361790;32;20226;-51
2022/04/02 04:16:37;;;;;;;275.80;264.93;;;0.80;99.90;;;;;;4366173;32;20156;-57
2022/04/02 04:19:04;;;;;;;258.57;248.47;;;0.70;99.90;;;;;;4374003;32;20175;-58
2022/04/02 04:21:31;;;;;;;273.10;262.30;;;0.70;99.90;;;;;;4371242;32;20175;-57
2022/04/02 04:23:57;;;;;;;266.57;256.10;;;0.70;99.90;;;;;;4371176;32;20476;-56
2022/04/02 04:26:24;;;;;;;277.47;266.57;;;0.60;99.90;;;;;;4365981;32;20183;-55
2022/04/02 04:28:54;;;;;;;281.87;270.73;;;0.60;99.90;;;;;;4360270;33;20164;-58
2022/04/02 04:31:23;;;;;;;263.87;253.43;;;0.60;99.90;;;;;;4366671;32;20219;-57
2022/04/02 04:33:51;;;;;;;288.50;276.87;;;0.50;99.90;;;;;;4371026;32;20619;-53
2022/04/02 04:36:19;;;;;;;273.73;263.03;;;0.50;99.90;;;;;;4363670;32;20172;-55
2022/04/02 04:38:46;;;;;;;275.17;264.33;;;0.50;99.90;;;;;;4365378;32;20654;-57
2022/04/02 04:41:18;;;;;;;275.33;264.53;;;0.40;99.90;;;;;;4369421;32;20184;-58
2022/04/02 04:43:48;;;;;;;271.37;260.67;;;0.40;99.90;;;;;;4374431;32;20164;-55
2022/04/02 04:46:15;;;;;;;280.47;269.50;;;0.50;99.90;;;;;;4366169;32;20553;-56
2022/04/02 04:48:44;;;;;;;278.57;267.67;;;0.40;99.90;;;;;;4376697;32;20205;-54
2022/04/02 04:51:11;;;;;;;276.47;265.57;;;0.40;99.90;;;;;;4374433;32;20598;-56
2022/04/02 04:53:39;;;;;;;277.77;266.77;;;0.30;99.90;;;;;;4367040;32;20508;-57
2022/04/02 04:56:06;;;;;;;286.63;275.27;;;0.40;99.90;;;;;;4363056;32;20218;-58
2022/04/02 04:58:33;;;;;;;276.13;265.30;;;0.30;99.90;;;;;;4369655;32;20160;-59
2022/04/02 05:01:00;;;;;;;273.07;262.33;;;0.30;99.90;;;;;;4365814;32;20191;-59
2022/04/02 05:03:27;;;;;;;284.67;273.47;;;0.30;99.90;;;;;;4372076;32;20172;-54
2022/04/02 05:05:57;;;;;;;291.40;279.93;;;0.30;99.90;;;;;;4364051;32;20165;-58
2022/04/02 05:08:25;;;;;;;279.40;268.43;;;0.30;99.90;;;;;;4375970;32;20168;-55
2022/04/02 05:10:53;;;;;;;277.87;266.70;;;0.30;99.90;;;;;;4368224;32;20161;-56
2022/04/02 05:13:20;;;;;;;277.37;266.40;;;0.30;99.90;;;;;;4367799;32;20153;-57
2022/04/02 05:15:47;;;;;;;295.93;284.10;;;0.30;99.90;;;;;;4373770;32;20165;-56
2022/04/02 05:18:14;;;;;;;286.77;275.47;;;0.30;99.90;;;;;;4375361;32;20496;-54
2022/04/02 05:20:42;;;;;;;274.30;263.50;;;0.40;99.90;;;;;;4378806;32;20522;-57
2022/04/02 05:23:10;;;;;;;266.20;255.70;;;0.40;99.90;;;;;;4369012;32;20524;-56
2022/04/02 05:25:38;;;;;;;287.40;275.90;;;0.50;99.90;;;;;;4378912;32;20149;-55
2022/04/02 05:28:06;;;;;;;275.00;264.10;;;0.50;99.90;;;;;;4375643;32;20160;-55
2022/04/02 05:30:33;;;;;;;291.37;279.77;;;0.60;99.90;;;;;;4375514;32;20231;-58
2022/04/02 05:33:00;;;;;;;287.83;276.37;;;0.60;99.90;;;;;;4364044;32;20179;-57
2022/04/02 05:35:26;;;;;;;280.67;269.27;;;0.70;99.90;;;;;;4373379;32;20214;-56
2022/04/02 05:37:54;;;;;;;277.20;266.03;;;0.80;99.90;;;;;;4375498;32;20168;-57
2022/04/02 05:40:22;;;;;;;282.77;271.40;;;0.90;99.90;;;;;;4375997;32;20212;-56
2022/04/02 05:42:49;;;;;;;274.40;263.57;;;1.00;99.90;;;;;;4372878;32;20152;-58
2022/04/02 05:45:16;;;;;;;286.33;275.10;;;1.00;99.90;;;;;;4370301;32;20223;-55
2022/04/02 05:47:44;;;;;;;278.33;267.37;;;1.10;99.90;;;;;;4365367;32;20251;-55
2022/04/02 05:50:12;;;;;;;279.83;268.67;;;1.20;99.90;;;;;;4371696;32;20164;-56
2022/04/02 05:52:39;;;;;;;280.03;269.03;;;1.30;99.90;;;;;;4371893;32;20157;-54
2022/04/02 05:55:08;;;;;;;286.97;275.70;;;1.40;99.90;;;;;;4377121;32;20160;-56
2022/04/02 05:57:38;;;;;;;271.67;261.00;;;1.50;99.90;;;;;;4376113;32;21267;-54
2022/04/02 06:00:07;;;;;;;275.80;264.70;;;1.50;99.90;;;;;;4366607;32;20202;-57
2022/04/02 06:02:35;;;;;;;273.97;263.10;;;1.50;99.90;;;;;;4366701;32;20220;-56
2022/04/02 06:05:07;;;;;;;280.13;269.03;;;1.60;99.90;;;;;;4367400;32;20162;-54
2022/04/02 06:07:33;;;;;;;276.10;265.00;;;1.70;99.90;;;;;;4369613;32;20461;-57
2022/04/02 06:10:02;;;;;;;272.97;262.20;;;1.70;99.90;;;;;;4367593;32;20184;-56
2022/04/02 06:12:30;;;;;;;255.03;244.97;;;1.80;99.90;;;;;;4367333;32;20546;-54
2022/04/02 06:14:59;;;;;;;274.20;263.43;;;1.80;99.90;;;;;;4368657;32;20552;-56
2022/04/02 06:17:26;;;;;;;275.80;264.97;;;1.90;99.90;;;;;;4366224;32;20213;-56
2022/04/02 06:19:54;;;;;;;290.73;279.30;;;2.10;99.90;;;;;;4372633;32;20231;-57
2022/04/02 06:22:20;;;;;;;278.73;267.73;;;2.10;99.90;;;;;;4369584;32;20220;-56
2022/04/02 06:24:47;;;;;;;277.03;266.13;;;2.20;99.90;;;;;;4366204;32;20208;-57
2022/04/02 06:27:14;;;;;;;272.63;261.93;;;2.20;99.90;;;;;;4364335;32;20168;-57
2022/04/02 06:29:41;;;;;;;267.47;256.97;;;2.30;99.90;;;;;;4370319;32;20506;-57
2022/04/02 06:32:10;;;;;;;263.00;252.60;;;2.30;99.90;;;;;;4367991;32;20622;-57
2022/04/02 06:34:39;;;;;;;282.13;270.93;;;2.30;99.90;;;;;;4368563;32;20200;-55
2022/04/02 06:37:06;;;;;;;267.70;256.90;;;2.30;99.90;;;;;;4368346;32;20176;-57
2022/04/02 06:39:32;;;;;;;275.80;265.00;;;2.30;99.90;;;;;;4367776;32;20180;-57
2022/04/02 06:41:59;;;;;;;270.67;259.80;;;2.30;99.90;;;;;;4369208;32;20169;-57
2022/04/02 06:44:29;;;;;;;265.07;254.57;;;2.40;99.90;;;;;;4369070;32;20358;-55
2022/04/02 06:46:57;;;;;;;267.03;256.43;;;2.40;99.90;;;;;;4368929;32;20578;-56
2022/04/02 06:49:25;;;;;;;265.30;254.80;;;2.40;99.90;;;;;;4364982;32;20161;-57
2022/04/02 06:51:52;;;;;;;267.83;256.90;;;2.40;99.90;;;;;;4368738;32;20197;-58
2022/04/02 06:54:19;;;;;;;274.77;263.97;;;2.50;99.90;;;;;;4368127;32;20202;-57
2022/04/02 06:56:48;;;;;;;273.17;262.33;;;2.50;99.90;;;;;;4369435;32;20220;-58
2022/04/02 06:59:15;;;;;;;262.93;252.60;;;2.60;99.90;;;;;;4366036;32;20163;-58
2022/04/02 07:01:42;;;;;;;261.13;250.87;;;2.70;99.90;;;;;;4365067;32;20168;-57
2022/04/02 07:04:08;;;;;;;264.70;254.13;;;2.80;99.90;;;;;;4368306;32;20314;-58
2022/04/02 07:06:44;;;;;;;251.70;241.80;;;2.80;99.90;;;;;;4368945;32;20148;-58
2022/04/02 07:09:11;;;;;;;263.60;253.17;;;2.80;99.90;;;;;;4364117;32;20529;-58
2022/04/02 07:11:37;;;;;;;265.43;254.57;;;2.90;99.90;;;;;;4368041;32;20244;-55
2022/04/02 07:14:04;;;;;;;268.13;257.57;;;2.90;99.90;;;;;;4367808;32;20221;-57
2022/04/02 07:16:31;;;;;;;270.93;260.23;;;2.90;99.90;;;;;;4378176;32;20186;-57
2022/04/02 07:19:00;;;;;;;271.97;261.07;;;3.10;99.90;;;;;;4365802;32;20157;-56
2022/04/02 07:21:28;;;;;;;265.57;255.00;;;3.10;99.90;;;;;;4375205;32;20203;-58
2022/04/02 07:23:57;;;;;;;269.00;258.50;;;3.20;99.90;;;;;;4373053;32;20153;-55
2022/04/02 07:26:24;;;;;;;264.87;254.47;;;3.20;99.90;;;;;;4370050;32;20242;-55
2022/04/02 07:28:52;;;;;;;265.47;255.03;;;3.30;99.90;;;;;;4360615;32;20515;-57
2022/04/02 07:31:19;;;;;;;256.70;246.57;;;3.40;99.90;;;;;;4371847;32;20171;-58
2022/04/02 07:33:48;;;;;;;257.73;247.60;;;3.50;99.90;;;;;;4376441;32;20196;-54
2022/04/02 07:36:25;;;;;;;266.73;256.27;;;3.80;99.90;;;;;;4370415;32;20754;-59
2022/04/02 07:39:04;;;;;;;250.00;240.17;;;3.90;99.90;;;;;;4372090;32;20152;-56
2022/04/02 07:41:38;;;;;;;243.13;233.53;;;4.00;99.90;;;;;;4375769;32;20146;-55
2022/04/02 07:44:18;;;;;;;248.60;238.73;;;4.10;99.90;;;;;;4375410;32;20171;-58
2022/04/02 07:46:47;;;;;;;231.77;222.60;;;4.10;99.90;;;;;;4376028;32;20204;-57
2022/04/02 07:49:19;;;;;;;252.90;243.07;;;4.20;99.90;;;;;;4375388;32;20161;-57
2022/04/02 07:51:51;;;;;;;245.67;236.07;;;4.30;99.90;;;;;;4374010;32;20177;-59
2022/04/02 07:54:23;;;;;;;240.97;231.53;;;4.50;99.90;;;;;;4375282;32;20146;-58
2022/04/02 07:56:51;;;;;;;232.47;223.30;;;4.70;99.90;;;;;;4375432;32;20162;-59
2022/04/02 07:59:30;;;;;;;241.43;231.90;;;5.00;99.90;;;;;;4373274;32;20268;-59
2022/04/02 08:01:57;;;;;;;220.20;211.53;;;5.20;99.90;;;;;;4372693;32;20226;-58
2022/04/02 08:04:26;;;;;;;221.53;212.73;;;5.20;99.90;;;;;;4370638;32;20210;-55
2022/04/02 08:06:53;;;;;;;228.30;219.37;;;5.50;99.90;;;;;;4365153;32;20227;-55
2022/04/02 08:09:25;;;;;;;215.93;207.47;;;5.90;99.90;;;;;;4368837;32;20224;-58
2022/04/02 08:11:53;;;;;;;202.10;194.03;;;5.80;99.90;;;;;;4367339;32;20492;-58
2022/04/02 08:14:21;;;;;;;209.27;200.80;;;5.90;99.90;;;;;;4367552;32;20243;-58
2022/04/02 08:16:49;;;;;;;174.23;167.30;;;6.10;99.90;;;;;;4369218;32;20615;-57
2022/04/02 08:19:22;;;;;;;160.57;154.13;;;6.70;99.90;;;;;;4366913;32;20157;-59
2022/04/02 08:21:48;;;;;;;120.77;115.93;;;10.00;98.40;;;;;;4369841;32;20157;-56
2022/04/02 08:24:15;;;;;;;80.87;77.37;;;14.40;89.50;;;;;;4373084;32;20217;-58
2022/04/02 08:26:56;;;;;;;48.47;46.37;;;17.50;69.70;;;;;;4368321;32;20181;-57
2022/04/02 08:29:53;;;;;;;27.13;26.03;;;18.60;59.70;;;;;;4370272;32;20167;-58
2022/04/02 08:32:32;;;;;;;33.87;32.37;;;17.90;57.00;;;;;;4365166;32;20159;-58
2022/04/02 08:35:07;;;;;;;47.60;45.60;;;19.60;54.30;;;;;;4363011;32;20183;-58
2022/04/02 08:37:46;;;;;;;39.70;38.10;;;21.00;50.60;;;;;;4361645;32;20535;-59
2022/04/02 08:40:37;;;;;;;32.83;31.43;;;23.00;46.50;;;;;;4363897;32;20287;-56
2022/04/02 08:43:42;;;;;;;25.40;24.40;;;24.10;42.90;;;;;;4371663;32;20161;-57
2022/04/02 08:46:28;;;;;;;22.47;21.47;;;25.80;40.20;;;;;;4370544;32;20180;-57
2022/04/02 08:48:58;;;;;;;19.77;18.97;;;26.10;38.90;;;;;;4370488;32;20198;-57
2022/04/02 08:51:42;;;;;;;20.43;19.50;;;25.40;37.70;;;;;;4371655;32;20156;-58
2022/04/02 08:54:24;;;;;;;19.67;18.63;;;22.50;37.90;;;;;;4367162;32;20183;-55
2022/04/02 08:56:59;;;;;;;24.90;23.53;;;18.50;43.30;;;;;;4365273;32;20219;-56
2022/04/02 08:59:37;;;;;;;32.63;30.97;;;15.50;46.70;;;;;;4369590;32;20174;-58
